createdAt,value
2023-02-24T00:00:38.420Z,25.93
2023-02-24T00:03:11.879Z,25.99
2023-02-24T00:05:45.892Z,26.00
2023-02-24T00:08:18.666Z,25.99
2023-02-24T00:10:50.400Z,26.01
2023-02-24T00:13:23.006Z,26.05
2023-02-24T00:16:03.503Z,26.21
2023-02-24T00:18:34.313Z,26.20
2023-02-24T00:21:13.382Z,26.38
2023-02-24T00:23:44.070Z,26.40
2023-02-24T00:26:16.902Z,26.35
2023-02-24T00:28:47.731Z,26.33
2023-02-24T00:31:19.451Z,26.34
2023-02-24T00:33:50.274Z,26.31
2023-02-24T00:36:26.922Z,26.31
2023-02-24T00:38:58.953Z,26.06
2023-02-24T00:41:32.157Z,26.21
2023-02-24T00:44:08.430Z,26.16
2023-02-24T00:46:43.042Z,26.24
2023-02-24T00:49:17.614Z,26.35
2023-02-24T00:51:49.255Z,26.27
2023-02-24T00:54:19.511Z,26.40
2023-02-24T00:56:49.614Z,26.26
2023-02-24T00:59:19.142Z,26.32
2023-02-24T01:01:51.231Z,26.29
2023-02-24T01:04:21.700Z,26.28
2023-02-24T01:07:01.150Z,26.21
2023-02-24T01:09:33.708Z,26.22
2023-02-24T01:12:31.348Z,26.32
2023-02-24T01:15:04.292Z,26.33
2023-02-24T01:17:38.562Z,26.19
2023-02-24T01:20:18.470Z,26.15
2023-02-24T01:22:50.777Z,26.13
2023-02-24T01:25:23.755Z,26.24
2023-02-24T01:27:54.560Z,26.26
2023-02-24T01:30:23.818Z,26.11
2023-02-24T01:32:55.050Z,26.02
2023-02-24T01:35:26.608Z,25.92
2023-02-24T01:37:56.556Z,25.88
2023-02-24T01:40:28.124Z,25.84
2023-02-24T01:42:57.576Z,25.92
2023-02-24T01:45:30.581Z,25.97
2023-02-24T02:00:49.061Z,26.34
2023-02-24T02:03:31.858Z,26.12
2023-02-24T02:06:08.521Z,26.05
2023-02-24T02:08:43.437Z,26.21
2023-02-24T02:11:23.600Z,26.14
2023-02-24T02:13:59.955Z,26.15
2023-02-24T02:16:43.815Z,26.16
2023-02-24T02:19:43.520Z,26.03
2023-02-24T02:22:21.277Z,26.06
2023-02-24T02:25:04.674Z,26.02
2023-02-24T02:27:50.387Z,25.92
2023-02-24T02:30:38.486Z,25.92
2023-02-24T02:33:32.714Z,25.66
2023-02-24T02:36:39.277Z,25.68
2023-02-24T02:39:29.868Z,25.76
2023-02-24T02:42:21.635Z,25.83
2023-02-24T02:45:06.478Z,26.00
2023-02-24T02:47:43.753Z,26.01
2023-02-24T02:50:24.939Z,25.99
2023-02-24T02:53:05.321Z,26.11
2023-02-24T02:55:43.392Z,26.20
2023-02-24T02:58:21.477Z,26.31
2023-02-24T03:01:02.580Z,26.19
2023-02-24T03:03:49.731Z,26.29
2023-02-24T03:06:26.944Z,26.31
2023-02-24T03:09:12.910Z,26.27
2023-02-24T03:11:43.688Z,26.24
2023-02-24T03:14:17.385Z,26.30
2023-02-24T03:16:47.856Z,26.41
2023-02-24T03:19:20.887Z,26.48
2023-02-24T03:22:16.488Z,26.47
2023-02-24T03:24:46.723Z,26.51
2023-02-24T03:27:43.582Z,26.65
2023-02-24T03:30:17.933Z,26.90
2023-02-24T03:33:19.269Z,26.67
2023-02-24T03:35:52.424Z,26.67
2023-02-24T03:38:25.470Z,26.70
2023-02-24T03:40:56.652Z,26.69
2023-02-24T03:43:33.403Z,26.72
2023-02-24T03:46:02.356Z,26.72
2023-02-24T03:48:40.274Z,26.68
2023-02-24T03:51:16.658Z,26.66
2023-02-24T03:54:20.825Z,26.70
2023-02-24T03:57:03.190Z,26.64
2023-02-24T03:59:53.848Z,26.51
2023-02-24T04:02:25.860Z,26.54
2023-02-24T04:05:11.930Z,26.47
2023-02-24T04:07:58.294Z,26.41
2023-02-24T04:10:35.555Z,26.42
2023-02-24T04:13:36.061Z,26.43
2023-02-24T04:16:19.165Z,26.49
2023-02-24T04:18:50.559Z,26.54
2023-02-24T04:21:21.051Z,26.59
2023-02-24T04:23:52.252Z,26.57
2023-02-24T04:26:23.109Z,26.54
2023-02-24T04:28:53.053Z,26.56
2023-02-24T04:31:24.840Z,26.53
2023-02-24T04:33:56.203Z,26.52
2023-02-24T04:36:34.798Z,26.56
2023-02-24T04:39:06.174Z,26.47
2023-02-24T04:41:38.346Z,26.51
2023-02-24T04:44:08.522Z,26.71
2023-02-24T04:46:38.193Z,26.87
2023-02-24T04:49:08.282Z,26.90
2023-02-24T04:51:43.103Z,26.92
2023-02-24T04:54:20.376Z,26.78
2023-02-24T04:56:53.014Z,26.82
2023-02-24T04:59:23.703Z,26.94
2023-02-24T05:01:53.935Z,26.95
2023-02-24T05:04:24.857Z,27.02
2023-02-24T05:06:58.152Z,27.09
2023-02-24T05:09:31.335Z,27.13
2023-02-24T05:12:01.203Z,27.13
2023-02-24T05:14:32.193Z,27.10
2023-02-24T05:17:04.246Z,27.15
2023-02-24T05:19:53.835Z,27.29
2023-02-24T05:22:23.703Z,27.43
2023-02-24T05:24:58.354Z,27.43
2023-02-24T05:27:31.338Z,27.45
2023-02-24T05:30:00.761Z,27.38
2023-02-24T05:32:30.166Z,27.22
2023-02-24T05:35:02.226Z,27.10
2023-02-24T05:37:36.136Z,27.04
2023-02-24T05:40:06.660Z,26.90
2023-02-24T05:42:37.658Z,27.12
2023-02-24T05:45:08.241Z,27.19
2023-02-24T05:47:41.716Z,27.12
2023-02-24T05:50:12.668Z,27.28
2023-02-24T05:52:49.276Z,27.18
2023-02-24T05:55:20.312Z,27.13
2023-02-24T05:57:51.627Z,27.12
2023-02-24T06:00:26.705Z,27.15
2023-02-24T06:03:10.179Z,27.07
2023-02-24T06:05:40.208Z,27.11
2023-02-24T06:08:12.817Z,27.10
2023-02-24T06:10:43.360Z,27.21
2023-02-24T06:13:13.782Z,27.40
2023-02-24T06:15:51.037Z,27.40
2023-02-24T06:18:22.643Z,27.48
2023-02-24T06:20:52.872Z,27.44
2023-02-24T06:23:22.110Z,27.45
2023-02-24T06:25:58.638Z,27.93
2023-02-24T06:28:30.870Z,28.11
2023-02-24T06:31:08.072Z,28.17
2023-02-24T06:33:39.188Z,28.20
2023-02-24T06:36:10.009Z,28.22
2023-02-24T06:38:44.684Z,28.29
2023-02-24T06:41:14.582Z,28.39
2023-02-24T06:43:49.134Z,28.50
2023-02-24T06:46:20.174Z,28.59
2023-02-24T06:48:49.736Z,28.58
2023-02-24T06:51:19.614Z,28.59
2023-02-24T06:53:51.405Z,28.70
2023-02-24T06:56:21.692Z,28.52
2023-02-24T06:58:52.624Z,28.54
2023-02-24T07:01:27.114Z,28.57
2023-02-24T07:04:08.407Z,28.61
2023-02-24T07:06:40.103Z,28.42
2023-02-24T07:09:12.831Z,28.14
2023-02-24T07:11:52.633Z,28.01
2023-02-24T07:14:26.307Z,28.11
2023-02-24T07:16:59.103Z,28.05
2023-02-24T07:19:34.657Z,28.10
2023-02-24T07:22:08.746Z,28.27
2023-02-24T07:24:40.367Z,28.33
2023-02-24T07:27:13.319Z,28.35
2023-02-24T07:29:43.597Z,28.29
2023-02-24T07:32:13.437Z,28.21
2023-02-24T07:34:43.478Z,28.25
2023-02-24T07:37:13.673Z,28.30
2023-02-24T07:39:43.944Z,28.29
2023-02-24T07:42:14.765Z,28.34
2023-02-24T07:44:50.089Z,28.36
2023-02-24T07:47:23.458Z,28.36
2023-02-24T07:49:53.255Z,28.44
2023-02-24T07:52:23.598Z,28.59
2023-02-24T07:54:55.818Z,28.54
2023-02-24T07:57:29.886Z,28.67
2023-02-24T08:00:00.805Z,28.68
2023-02-24T08:02:41.955Z,28.86
2023-02-24T08:05:13.625Z,28.88
2023-02-24T08:07:51.086Z,28.77
2023-02-24T08:10:36.344Z,28.57
2023-02-24T08:13:16.146Z,28.68
2023-02-24T08:15:57.476Z,28.70
2023-02-24T08:18:29.300Z,28.84
2023-02-24T08:21:06.457Z,28.77
2023-02-24T08:23:45.426Z,28.79
2023-02-24T08:26:18.299Z,28.70
2023-02-24T08:28:53.809Z,28.52
2023-02-24T08:31:23.969Z,28.58
2023-02-24T08:33:57.564Z,28.67
2023-02-24T08:36:27.015Z,28.77
2023-02-24T08:39:00.613Z,28.90
2023-02-24T08:41:45.522Z,29.03
2023-02-24T08:44:20.489Z,29.06
2023-02-24T08:46:51.273Z,29.05
2023-02-24T08:49:21.039Z,28.96
2023-02-24T08:51:54.388Z,29.11
2023-02-24T08:54:32.590Z,29.50
2023-02-24T08:57:08.613Z,29.69
2023-02-24T08:59:38.842Z,29.67
2023-02-24T09:02:20.607Z,29.50
2023-02-24T09:04:57.051Z,29.53
2023-02-24T09:07:29.833Z,29.34
2023-02-24T09:09:59.670Z,29.43
2023-02-24T09:12:31.553Z,29.48
2023-02-24T09:15:05.225Z,29.63
2023-02-24T09:17:50.567Z,29.80
2023-02-24T09:20:30.584Z,29.91
2023-02-24T09:23:09.796Z,29.84
2023-02-24T09:25:50.617Z,29.54
2023-02-24T09:28:28.279Z,29.44
2023-02-24T09:31:01.461Z,29.48
2023-02-24T09:33:39.656Z,29.68
2023-02-24T09:36:20.795Z,29.66
2023-02-24T09:39:03.817Z,29.69
2023-02-24T09:42:18.329Z,29.72
2023-02-24T09:44:55.499Z,29.84
2023-02-24T09:47:49.845Z,29.99
2023-02-24T09:50:51.190Z,30.02
2023-02-24T09:53:19.792Z,29.97
2023-02-24T09:56:08.463Z,30.11
2023-02-24T09:58:44.070Z,30.28
2023-02-24T10:01:26.948Z,30.31
2023-02-24T10:04:23.468Z,30.33
2023-02-24T10:07:25.962Z,30.44
2023-02-24T10:10:20.201Z,30.65
2023-02-24T10:13:16.045Z,30.73
2023-02-24T10:15:57.855Z,30.79
2023-02-24T10:18:31.090Z,30.84
2023-02-24T10:21:31.080Z,30.80
2023-02-24T10:24:35.051Z,30.64
2023-02-24T10:27:24.613Z,30.70
2023-02-24T10:30:21.762Z,30.69
2023-02-24T10:32:55.377Z,30.81
2023-02-24T10:35:26.605Z,30.61
2023-02-24T10:38:06.142Z,30.51
2023-02-24T10:41:06.974Z,30.57
2023-02-24T10:43:46.358Z,30.61
2023-02-24T10:46:42.015Z,30.71
2023-02-24T10:49:20.332Z,30.74
2023-02-24T10:51:53.337Z,30.90
2023-02-24T10:55:05.649Z,31.07
2023-02-24T10:57:59.134Z,31.18
2023-02-24T11:01:18.653Z,31.11
2023-02-24T11:04:20.550Z,30.77
2023-02-24T11:06:53.339Z,30.64
2023-02-24T11:09:29.699Z,30.58
2023-02-24T11:12:26.515Z,30.44
2023-02-24T11:15:16.923Z,30.43
2023-02-24T11:17:51.495Z,30.60
2023-02-24T11:20:48.617Z,30.56
2023-02-24T11:23:26.710Z,30.61
2023-02-24T11:26:01.633Z,30.58
2023-02-24T11:28:53.987Z,30.61
2023-02-24T11:31:23.962Z,30.61
2023-02-24T11:34:07.179Z,30.65
2023-02-24T11:37:21.994Z,30.72
2023-02-24T11:40:01.879Z,30.78
2023-02-24T11:42:42.610Z,30.73
2023-02-24T11:45:35.160Z,30.78
2023-02-24T11:48:15.899Z,30.90
2023-02-24T11:50:48.868Z,30.83
2023-02-24T11:53:24.834Z,30.83
2023-02-24T11:56:06.055Z,30.78
2023-02-24T11:58:42.404Z,30.64
2023-02-24T12:01:58.761Z,30.64
2023-02-24T12:04:42.148Z,30.69
2023-02-24T12:07:24.109Z,30.82
2023-02-24T12:10:17.947Z,30.90
2023-02-24T12:12:50.962Z,30.97
2023-02-24T12:15:27.009Z,30.89
2023-02-24T12:18:13.758Z,30.90
2023-02-24T12:21:15.996Z,30.88
2023-02-24T12:23:47.145Z,30.91
2023-02-24T12:26:56.237Z,30.97
2023-02-24T12:30:06.076Z,31.01
2023-02-24T12:33:02.422Z,30.92
2023-02-24T12:36:14.927Z,30.85
2023-02-24T12:39:16.785Z,30.86
2023-02-24T12:41:54.910Z,30.99
2023-02-24T12:44:52.790Z,30.94
2023-02-24T12:47:33.892Z,30.77
2023-02-24T12:50:23.997Z,30.81
2023-02-24T12:52:54.597Z,30.81
2023-02-24T12:55:45.471Z,30.86
2023-02-24T12:58:18.765Z,30.91
2023-02-24T13:00:55.531Z,30.89
2023-02-24T13:03:29.630Z,30.86
2023-02-24T13:06:30.908Z,30.83
2023-02-24T13:09:30.370Z,30.94
2023-02-24T13:12:05.054Z,31.00
2023-02-24T13:14:38.592Z,30.94
2023-02-24T13:17:19.296Z,30.94
2023-02-24T13:19:49.667Z,30.94
2023-02-24T13:22:26.291Z,30.98
2023-02-24T13:24:57.440Z,31.03
2023-02-24T13:27:32.388Z,31.00
2023-02-24T13:30:14.985Z,31.01
2023-02-24T13:32:49.436Z,31.14
2023-02-24T13:35:21.740Z,31.20
2023-02-24T13:37:55.384Z,31.18
2023-02-24T13:40:27.861Z,31.07
2023-02-24T13:43:00.709Z,31.07
2023-02-24T13:45:31.864Z,31.14
2023-02-24T13:48:29.855Z,31.17
2023-02-24T13:51:17.778Z,31.36
2023-02-24T13:54:25.847Z,31.45
2023-02-24T13:57:12.096Z,31.35
2023-02-24T14:00:35.665Z,31.47
2023-02-24T14:03:13.681Z,31.38
2023-02-24T14:05:44.305Z,31.39
2023-02-24T14:08:22.988Z,31.33
2023-02-24T14:10:56.736Z,31.43
2023-02-24T14:13:30.225Z,31.29
2023-02-24T14:16:08.752Z,31.30
2023-02-24T14:18:41.246Z,31.44
2023-02-24T14:21:24.487Z,31.52
2023-02-24T14:24:11.574Z,31.58
2023-02-24T14:26:46.727Z,31.42
2023-02-24T14:29:22.370Z,31.67
2023-02-24T14:31:54.142Z,31.74
2023-02-24T14:34:25.605Z,31.76
2023-02-24T14:37:08.700Z,31.85
2023-02-24T14:40:07.543Z,31.66
2023-02-24T14:42:53.261Z,31.46
2023-02-24T14:45:29.300Z,31.66
2023-02-24T14:47:59.149Z,31.70
2023-02-24T14:50:31.865Z,31.69
2023-02-24T14:53:07.300Z,31.52
2023-02-24T14:55:41.554Z,31.45
2023-02-24T14:58:20.971Z,31.44
2023-02-24T15:00:54.958Z,31.44
2023-02-24T15:03:32.248Z,31.35
2023-02-24T15:06:08.423Z,31.17
2023-02-24T15:08:44.851Z,31.37
2023-02-24T15:11:21.929Z,31.44
2023-02-24T15:14:03.085Z,31.40
2023-02-24T15:16:42.692Z,31.38
2023-02-24T15:19:28.853Z,31.38
2023-02-24T15:21:59.473Z,31.32
2023-02-24T15:24:33.968Z,31.20
2023-02-24T15:27:21.102Z,31.17
2023-02-24T15:30:29.514Z,31.16
2023-02-24T15:33:18.508Z,31.21
2023-02-24T15:35:58.894Z,31.18
2023-02-24T15:38:33.359Z,31.23
2023-02-24T15:41:04.876Z,31.26
2023-02-24T15:43:35.899Z,31.35
2023-02-24T15:46:34.436Z,31.24
2023-02-24T15:49:05.470Z,31.32
2023-02-24T15:51:39.539Z,31.48
2023-02-24T15:54:22.519Z,31.48
2023-02-24T15:56:51.531Z,31.53
2023-02-24T15:59:23.060Z,31.54
2023-02-24T16:01:53.281Z,31.49
2023-02-24T16:04:27.220Z,31.44
2023-02-24T16:06:57.978Z,31.45
2023-02-24T16:09:38.261Z,31.47
2023-02-24T16:12:20.742Z,31.59
2023-02-24T16:14:55.372Z,31.55
2023-02-24T16:17:33.322Z,31.55
2023-02-24T16:20:09.849Z,31.63
2023-02-24T16:22:41.504Z,31.62
2023-02-24T16:25:18.438Z,31.64
2023-02-24T16:27:51.318Z,31.70
2023-02-24T16:30:22.732Z,31.76
2023-02-24T16:32:58.674Z,31.78
2023-02-24T16:35:28.401Z,31.78
2023-02-24T16:38:01.565Z,31.82
2023-02-24T16:40:34.303Z,32.00
2023-02-24T16:43:07.411Z,32.04
2023-02-24T16:45:39.286Z,31.87
2023-02-24T16:48:20.302Z,31.81
2023-02-24T16:50:50.560Z,31.84
2023-02-24T16:53:23.918Z,31.94
2023-02-24T16:55:53.982Z,31.91
2023-02-24T16:58:25.626Z,31.88
2023-02-24T17:00:57.805Z,31.86
2023-02-24T17:03:34.532Z,31.93
2023-02-24T17:06:08.073Z,31.97
2023-02-24T17:08:42.282Z,32.21
2023-02-24T17:11:18.048Z,32.32
2023-02-24T17:13:47.852Z,32.22
2023-02-24T17:16:22.295Z,32.15
2023-02-24T17:18:52.192Z,32.17
2023-02-24T17:21:21.676Z,32.15
2023-02-24T17:23:52.325Z,32.16
2023-02-24T17:26:22.387Z,32.16
2023-02-24T17:28:53.244Z,32.16
2023-02-24T17:31:23.624Z,32.23
2023-02-24T17:33:58.833Z,32.29
2023-02-24T17:36:29.717Z,32.23
2023-02-24T17:39:05.875Z,32.51
2023-02-24T17:41:37.728Z,32.50
2023-02-24T17:44:07.399Z,32.42
2023-02-24T17:46:38.658Z,32.40
2023-02-24T17:49:09.721Z,32.50
2023-02-24T17:51:40.438Z,32.45
2023-02-24T17:54:13.181Z,32.42
2023-02-24T17:56:46.250Z,32.39
2023-02-24T17:59:15.318Z,32.57
2023-02-24T18:01:47.572Z,32.67
2023-02-24T18:04:21.776Z,32.64
2023-02-24T18:06:51.209Z,32.66
2023-02-24T18:09:25.778Z,32.67
2023-02-24T18:12:02.563Z,32.60
2023-02-24T18:14:41.031Z,32.56
2023-02-24T18:17:14.020Z,32.61
2023-02-24T18:19:43.641Z,32.53
2023-02-24T18:22:14.182Z,32.57
2023-02-24T18:24:45.400Z,32.55
2023-02-24T18:27:14.712Z,32.51
2023-02-24T18:29:49.140Z,32.43
2023-02-24T18:32:20.298Z,32.46
2023-02-24T18:34:54.886Z,32.51
2023-02-24T18:37:29.116Z,32.52
2023-02-24T18:40:02.056Z,32.58
2023-02-24T18:42:44.298Z,32.57
2023-02-24T18:45:15.737Z,32.56
2023-02-24T18:47:47.361Z,32.48
2023-02-24T18:50:25.607Z,32.44
2023-02-24T18:52:55.793Z,32.46
2023-02-24T18:55:30.621Z,32.45
2023-02-24T18:58:11.566Z,32.74
2023-02-24T19:00:43.895Z,32.80
2023-02-24T19:03:14.786Z,32.91
2023-02-24T19:05:46.752Z,33.00
2023-02-24T19:08:19.349Z,33.13
2023-02-24T19:13:53.989Z,32.66
2023-02-24T19:16:23.793Z,32.44
2023-02-24T19:18:58.861Z,32.32
2023-02-24T19:21:30.933Z,32.28
2023-02-24T19:24:04.590Z,32.38
2023-02-24T19:26:34.816Z,32.35
2023-02-24T19:29:17.820Z,32.34
2023-02-24T19:31:53.576Z,32.29
2023-02-24T19:34:23.372Z,32.34
2023-02-24T19:36:54.289Z,32.41
2023-02-24T19:39:24.406Z,32.59
2023-02-24T19:41:54.940Z,32.67
2023-02-24T19:44:24.487Z,32.71
2023-02-24T19:46:53.896Z,32.76
2023-02-24T19:49:23.499Z,32.62
2023-02-24T19:52:02.630Z,32.59
2023-02-24T19:54:31.997Z,32.57
2023-02-24T19:57:03.078Z,32.61
2023-02-24T19:59:42.236Z,32.66
2023-02-24T20:02:13.452Z,32.70
2023-02-24T20:04:45.909Z,32.40
2023-02-24T20:07:23.415Z,32.31
2023-02-24T20:09:55.803Z,32.39
2023-02-24T20:12:27.424Z,32.34
2023-02-24T20:14:56.671Z,32.40
2023-02-24T20:17:41.404Z,32.50
2023-02-24T20:20:33.080Z,32.67
2023-02-24T20:23:03.696Z,32.60
2023-02-24T20:25:33.491Z,32.51
2023-02-24T20:28:02.890Z,32.47
2023-02-24T20:30:32.133Z,32.68
2023-02-24T20:33:02.809Z,32.74
2023-02-24T20:35:40.998Z,33.09
2023-02-24T20:38:15.186Z,33.37
2023-02-24T20:40:47.268Z,33.30
2023-02-24T20:43:17.467Z,33.35
2023-02-24T20:45:49.668Z,33.08
2023-02-24T20:48:20.001Z,33.03
2023-02-24T20:50:49.098Z,32.96
2023-02-24T20:53:18.843Z,32.88
2023-02-24T20:56:03.708Z,32.74
2023-02-24T20:58:32.968Z,32.61
2023-02-24T21:01:02.870Z,32.55
2023-02-24T21:03:33.426Z,32.58
2023-02-24T21:06:09.843Z,32.72
2023-02-24T21:08:44.503Z,32.84
2023-02-24T21:11:15.318Z,32.86
2023-02-24T21:14:19.078Z,33.01
2023-02-24T21:19:47.114Z,32.38
2023-02-24T21:22:34.337Z,32.12
2023-02-24T21:25:03.995Z,32.08
2023-02-24T21:27:33.966Z,32.33
2023-02-24T21:30:08.621Z,32.37
2023-02-24T21:32:39.984Z,32.34
2023-02-24T21:35:15.087Z,32.55
2023-02-24T21:37:46.172Z,33.39
2023-02-24T21:40:18.585Z,33.51
2023-02-24T21:42:48.764Z,33.49
2023-02-24T21:45:20.028Z,33.31
2023-02-24T21:47:49.598Z,33.24
2023-02-24T21:50:19.139Z,33.26
2023-02-24T21:52:49.622Z,33.21
2023-02-24T21:55:21.311Z,33.27
2023-02-24T21:57:53.281Z,33.22
2023-02-24T22:00:24.634Z,33.01
2023-02-24T22:02:57.033Z,33.08
2023-02-24T22:05:27.725Z,33.03
2023-02-24T22:07:58.862Z,33.19
2023-02-24T22:10:28.602Z,33.32
2023-02-24T22:12:57.912Z,33.21
2023-02-24T22:15:28.986Z,33.12
2023-02-24T22:17:59.784Z,33.15
2023-02-24T22:20:29.316Z,33.18
2023-02-24T22:22:59.028Z,33.20
2023-02-24T22:25:28.682Z,33.24
2023-02-24T22:28:00.831Z,33.50
2023-02-24T22:30:31.974Z,33.55
2023-02-24T22:33:01.574Z,33.61
2023-02-24T22:35:36.330Z,33.64
2023-02-24T22:38:05.770Z,33.55
2023-02-24T22:40:42.192Z,33.57
2023-02-24T22:43:15.010Z,33.70
2023-02-24T22:45:44.163Z,33.95
2023-02-24T22:48:16.515Z,33.92
2023-02-24T22:50:47.330Z,33.72
2023-02-24T22:53:17.232Z,33.47
2023-02-24T22:55:49.112Z,33.38
2023-02-24T22:58:19.180Z,33.50
2023-02-24T23:00:49.070Z,33.53
2023-02-24T23:03:23.127Z,33.62
2023-02-24T23:06:00.905Z,33.67
2023-02-24T23:08:32.569Z,33.76
2023-02-24T23:15:47.205Z,34.00
2023-02-24T23:18:18.059Z,33.97
2023-02-24T23:22:25.748Z,33.87
2023-02-24T23:24:54.881Z,33.70
2023-02-24T23:27:23.759Z,33.55
2023-02-24T23:29:52.447Z,33.36
2023-02-24T23:32:21.512Z,33.37
2023-02-24T23:34:54.215Z,33.34
2023-02-24T23:37:22.995Z,33.73
2023-02-24T23:39:52.439Z,33.93
2023-02-24T23:42:21.992Z,33.88
2023-02-24T23:44:51.328Z,33.67
2023-02-24T23:47:26.268Z,33.63
2023-02-24T23:49:55.828Z,33.58
2023-02-24T23:52:24.796Z,33.47
2023-02-24T23:54:54.428Z,33.19
2023-02-24T23:57:23.191Z,33.11
2023-02-24T23:59:53.569Z,33.02
